sensor_id;sensor_type;location;lat;lon;timestamp;P1;durP1;ratioP1;P2;durP2;ratioP2
1336;SDS011;662;48.814;9.318;2022-09-24T00:01:22;10.63;;;7.40;;
1336;SDS011;662;48.814;9.318;2022-09-24T00:03:50;8.40;;;7.60;;
1336;SDS011;662;48.814;9.318;2022-09-24T00:06:18;8.03;;;7.33;;
1336;SDS011;662;48.814;9.318;2022-09-24T00:08:45;9.17;;;7.43;;
1336;SDS011;662;48.814;9.318;2022-09-24T00:11:12;8.07;;;7.33;;
1336;SDS011;662;48.814;9.318;2022-09-24T00:13:39;7.50;;;6.83;;
1336;SDS011;662;48.814;9.318;2022-09-24T00:16:07;7.33;;;6.63;;
1336;SDS011;662;48.814;9.318;2022-09-24T00:18:38;8.53;;;7.63;;
1336;SDS011;662;48.814;9.318;2022-09-24T00:23:43;6.80;;;6.10;;
1336;SDS011;662;48.814;9.318;2022-09-24T00:26:12;7.57;;;6.87;;
1336;SDS011;662;48.814;9.318;2022-09-24T00:28:57;8.20;;;6.87;;
1336;SDS011;662;48.814;9.318;2022-09-24T00:31:23;7.57;;;6.93;;
1336;SDS011;662;48.814;9.318;2022-09-24T00:33:50;8.30;;;7.40;;
1336;SDS011;662;48.814;9.318;2022-09-24T00:36:17;7.53;;;6.93;;
1336;SDS011;662;48.814;9.318;2022-09-24T00:38:44;8.47;;;7.40;;
1336;SDS011;662;48.814;9.318;2022-09-24T00:41:12;9.03;;;8.10;;
1336;SDS011;662;48.814;9.318;2022-09-24T00:43:37;9.77;;;7.93;;
1336;SDS011;662;48.814;9.318;2022-09-24T00:46:06;8.60;;;7.70;;
1336;SDS011;662;48.814;9.318;2022-09-24T00:48:56;8.20;;;7.40;;
1336;SDS011;662;48.814;9.318;2022-09-24T00:51:26;8.07;;;7.27;;
1336;SDS011;662;48.814;9.318;2022-09-24T00:53:54;8.50;;;7.70;;
1336;SDS011;662;48.814;9.318;2022-09-24T00:56:24;7.60;;;7.00;;
1336;SDS011;662;48.814;9.318;2022-09-24T00:58:52;7.87;;;7.27;;
1336;SDS011;662;48.814;9.318;2022-09-24T01:01:21;7.30;;;6.60;;
1336;SDS011;662;48.814;9.318;2022-09-24T01:03:48;8.40;;;6.60;;
1336;SDS011;662;48.814;9.318;2022-09-24T01:06:17;8.43;;;6.70;;
1336;SDS011;662;48.814;9.318;2022-09-24T01:08:42;8.47;;;7.70;;
1336;SDS011;662;48.814;9.318;2022-09-24T01:16:44;8.83;;;6.70;;
1336;SDS011;662;48.814;9.318;2022-09-24T01:22:02;8.27;;;7.37;;
1336;SDS011;662;48.814;9.318;2022-09-24T01:27:17;8.60;;;7.10;;
1336;SDS011;662;48.814;9.318;2022-09-24T01:29:56;11.13;;;7.43;;
1336;SDS011;662;48.814;9.318;2022-09-24T01:32:34;7.70;;;7.03;;
1336;SDS011;662;48.814;9.318;2022-09-24T01:35:16;9.80;;;7.63;;
1336;SDS011;662;48.814;9.318;2022-09-24T01:37:57;8.10;;;7.47;;
1336;SDS011;662;48.814;9.318;2022-09-24T01:40:27;10.10;;;7.23;;
1336;SDS011;662;48.814;9.318;2022-09-24T01:42:55;8.57;;;7.57;;
1336;SDS011;662;48.814;9.318;2022-09-24T01:45:22;7.80;;;7.00;;
1336;SDS011;662;48.814;9.318;2022-09-24T01:47:50;9.60;;;8.00;;
1336;SDS011;662;48.814;9.318;2022-09-24T01:50:17;8.27;;;7.57;;
1336;SDS011;662;48.814;9.318;2022-09-24T01:53:27;8.50;;;7.70;;
1336;SDS011;662;48.814;9.318;2022-09-24T01:55:54;10.10;;;8.20;;
1336;SDS011;662;48.814;9.318;2022-09-24T01:58:31;10.03;;;7.77;;
1336;SDS011;662;48.814;9.318;2022-09-24T02:01:05;8.67;;;7.63;;
1336;SDS011;662;48.814;9.318;2022-09-24T02:03:43;7.90;;;7.20;;
1336;SDS011;662;48.814;9.318;2022-09-24T02:06:19;9.40;;;7.40;;
1336;SDS011;662;48.814;9.318;2022-09-24T02:09:27;9.00;;;7.80;;
1336;SDS011;662;48.814;9.318;2022-09-24T02:14:47;8.90;;;8.00;;
1336;SDS011;662;48.814;9.318;2022-09-24T02:17:18;8.63;;;7.83;;
1336;SDS011;662;48.814;9.318;2022-09-24T02:19:48;8.90;;;8.10;;
1336;SDS011;662;48.814;9.318;2022-09-24T02:22:14;8.97;;;8.00;;
1336;SDS011;662;48.814;9.318;2022-09-24T02:24:49;9.17;;;8.37;;
1336;SDS011;662;48.814;9.318;2022-09-24T02:27:17;9.37;;;8.40;;
1336;SDS011;662;48.814;9.318;2022-09-24T02:29:43;8.43;;;7.73;;
1336;SDS011;662;48.814;9.318;2022-09-24T02:32:10;8.23;;;7.53;;
1336;SDS011;662;48.814;9.318;2022-09-24T02:34:40;8.70;;;7.80;;
1336;SDS011;662;48.814;9.318;2022-09-24T02:37:11;9.67;;;8.70;;
1336;SDS011;662;48.814;9.318;2022-09-24T02:39:39;13.07;;;9.20;;
1336;SDS011;662;48.814;9.318;2022-09-24T02:42:05;10.03;;;7.87;;
1336;SDS011;662;48.814;9.318;2022-09-24T02:44:33;15.43;;;8.90;;
1336;SDS011;662;48.814;9.318;2022-09-24T02:47:03;10.13;;;7.90;;
1336;SDS011;662;48.814;9.318;2022-09-24T02:49:30;9.53;;;8.17;;
1336;SDS011;662;48.814;9.318;2022-09-24T02:51:56;8.97;;;8.07;;
1336;SDS011;662;48.814;9.318;2022-09-24T02:54:22;9.33;;;8.53;;
1336;SDS011;662;48.814;9.318;2022-09-24T02:56:49;9.80;;;8.80;;
1336;SDS011;662;48.814;9.318;2022-09-24T02:59:15;8.80;;;7.90;;
1336;SDS011;662;48.814;9.318;2022-09-24T03:01:41;8.90;;;8.10;;
1336;SDS011;662;48.814;9.318;2022-09-24T03:04:07;8.93;;;8.03;;
1336;SDS011;662;48.814;9.318;2022-09-24T03:06:33;9.03;;;8.23;;
1336;SDS011;662;48.814;9.318;2022-09-24T03:08:59;8.83;;;8.10;;
1336;SDS011;662;48.814;9.318;2022-09-24T03:11:27;9.03;;;8.23;;
1336;SDS011;662;48.814;9.318;2022-09-24T03:13:53;9.90;;;9.10;;
1336;SDS011;662;48.814;9.318;2022-09-24T03:16:18;9.70;;;8.80;;
1336;SDS011;662;48.814;9.318;2022-09-24T03:18:47;9.30;;;8.27;;
1336;SDS011;662;48.814;9.318;2022-09-24T03:21:14;9.30;;;8.50;;
1336;SDS011;662;48.814;9.318;2022-09-24T03:23:41;9.20;;;8.30;;
1336;SDS011;662;48.814;9.318;2022-09-24T03:26:07;9.70;;;8.87;;
1336;SDS011;662;48.814;9.318;2022-09-24T03:28:33;12.40;;;9.17;;
1336;SDS011;662;48.814;9.318;2022-09-24T03:30:59;13.87;;;8.70;;
1336;SDS011;662;48.814;9.318;2022-09-24T03:33:33;10.97;;;9.20;;
1336;SDS011;662;48.814;9.318;2022-09-24T03:36:07;11.00;;;9.93;;
1336;SDS011;662;48.814;9.318;2022-09-24T03:38:33;9.60;;;8.63;;
1336;SDS011;662;48.814;9.318;2022-09-24T03:40:59;9.07;;;8.27;;
1336;SDS011;662;48.814;9.318;2022-09-24T03:43:26;9.97;;;9.07;;
1336;SDS011;662;48.814;9.318;2022-09-24T03:45:52;10.53;;;8.70;;
1336;SDS011;662;48.814;9.318;2022-09-24T03:48:19;10.10;;;9.20;;
1336;SDS011;662;48.814;9.318;2022-09-24T03:50:47;9.30;;;8.50;;
1336;SDS011;662;48.814;9.318;2022-09-24T03:53:13;9.40;;;8.50;;
1336;SDS011;662;48.814;9.318;2022-09-24T03:55:45;9.67;;;8.77;;
1336;SDS011;662;48.814;9.318;2022-09-24T03:58:16;10.37;;;9.27;;
1336;SDS011;662;48.814;9.318;2022-09-24T04:00:42;9.40;;;8.60;;
1336;SDS011;662;48.814;9.318;2022-09-24T04:03:08;10.40;;;9.40;;
1336;SDS011;662;48.814;9.318;2022-09-24T04:05:34;10.07;;;9.00;;
1336;SDS011;662;48.814;9.318;2022-09-24T04:08:01;9.43;;;8.63;;
1336;SDS011;662;48.814;9.318;2022-09-24T04:10:27;10.43;;;9.30;;
1336;SDS011;662;48.814;9.318;2022-09-24T04:12:53;10.57;;;9.40;;
1336;SDS011;662;48.814;9.318;2022-09-24T04:15:20;10.10;;;9.10;;
1336;SDS011;662;48.814;9.318;2022-09-24T04:17:49;9.70;;;8.90;;
1336;SDS011;662;48.814;9.318;2022-09-24T04:20:16;9.60;;;8.70;;
1336;SDS011;662;48.814;9.318;2022-09-24T04:22:45;10.13;;;9.23;;
1336;SDS011;662;48.814;9.318;2022-09-24T04:25:11;11.03;;;10.03;;
1336;SDS011;662;48.814;9.318;2022-09-24T04:27:36;9.60;;;8.80;;
1336;SDS011;662;48.814;9.318;2022-09-24T04:30:03;10.70;;;9.80;;
1336;SDS011;662;48.814;9.318;2022-09-24T04:32:28;10.20;;;9.30;;
1336;SDS011;662;48.814;9.318;2022-09-24T04:34:54;9.93;;;9.03;;
1336;SDS011;662;48.814;9.318;2022-09-24T04:37:20;10.23;;;9.37;;
1336;SDS011;662;48.814;9.318;2022-09-24T04:39:45;10.93;;;9.40;;
1336;SDS011;662;48.814;9.318;2022-09-24T04:42:14;10.53;;;9.63;;
1336;SDS011;662;48.814;9.318;2022-09-24T04:44:41;10.77;;;9.87;;
1336;SDS011;662;48.814;9.318;2022-09-24T04:47:12;10.33;;;9.33;;
1336;SDS011;662;48.814;9.318;2022-09-24T04:49:38;10.10;;;8.30;;
1336;SDS011;662;48.814;9.318;2022-09-24T04:52:04;10.03;;;9.23;;
1336;SDS011;662;48.814;9.318;2022-09-24T04:54:30;9.73;;;8.80;;
1336;SDS011;662;48.814;9.318;2022-09-24T04:56:56;9.87;;;8.60;;
1336;SDS011;662;48.814;9.318;2022-09-24T04:59:21;9.43;;;8.57;;
1336;SDS011;662;48.814;9.318;2022-09-24T05:01:47;9.53;;;8.73;;
1336;SDS011;662;48.814;9.318;2022-09-24T05:04:13;10.93;;;9.93;;
1336;SDS011;662;48.814;9.318;2022-09-24T05:06:39;11.10;;;9.50;;
1336;SDS011;662;48.814;9.318;2022-09-24T05:09:05;9.43;;;8.60;;
1336;SDS011;662;48.814;9.318;2022-09-24T05:11:31;9.83;;;8.83;;
1336;SDS011;662;48.814;9.318;2022-09-24T05:13:56;10.43;;;9.43;;
1336;SDS011;662;48.814;9.318;2022-09-24T05:16:22;10.00;;;9.20;;
1336;SDS011;662;48.814;9.318;2022-09-24T05:18:48;10.20;;;9.20;;
1336;SDS011;662;48.814;9.318;2022-09-24T05:21:13;10.90;;;9.80;;
1336;SDS011;662;48.814;9.318;2022-09-24T05:23:39;11.40;;;9.60;;
1336;SDS011;662;48.814;9.318;2022-09-24T05:26:05;11.00;;;9.80;;
1336;SDS011;662;48.814;9.318;2022-09-24T05:28:49;10.97;;;9.87;;
1336;SDS011;662;48.814;9.318;2022-09-24T05:31:16;10.33;;;9.40;;
1336;SDS011;662;48.814;9.318;2022-09-24T05:33:41;12.30;;;10.43;;
1336;SDS011;662;48.814;9.318;2022-09-24T05:36:07;10.37;;;9.37;;
1336;SDS011;662;48.814;9.318;2022-09-24T05:38:33;11.97;;;10.20;;
1336;SDS011;662;48.814;9.318;2022-09-24T05:40:58;14.43;;;9.87;;
1336;SDS011;662;48.814;9.318;2022-09-24T05:43:24;12.37;;;10.10;;
1336;SDS011;662;48.814;9.318;2022-09-24T05:45:51;10.17;;;9.17;;
1336;SDS011;662;48.814;9.318;2022-09-24T05:48:18;11.17;;;10.07;;
1336;SDS011;662;48.814;9.318;2022-09-24T05:50:45;11.77;;;10.57;;
1336;SDS011;662;48.814;9.318;2022-09-24T05:53:11;10.33;;;9.50;;
1336;SDS011;662;48.814;9.318;2022-09-24T05:55:37;10.70;;;9.60;;
1336;SDS011;662;48.814;9.318;2022-09-24T05:58:06;10.03;;;9.23;;
1336;SDS011;662;48.814;9.318;2022-09-24T06:00:34;10.43;;;9.43;;
1336;SDS011;662;48.814;9.318;2022-09-24T06:03:06;10.40;;;9.50;;
1336;SDS011;662;48.814;9.318;2022-09-24T06:05:35;11.63;;;10.50;;
1336;SDS011;662;48.814;9.318;2022-09-24T06:08:01;10.53;;;9.63;;
1336;SDS011;662;48.814;9.318;2022-09-24T06:10:28;10.33;;;9.23;;
1336;SDS011;662;48.814;9.318;2022-09-24T06:12:54;10.40;;;9.50;;
1336;SDS011;662;48.814;9.318;2022-09-24T06:15:20;10.43;;;9.53;;
1336;SDS011;662;48.814;9.318;2022-09-24T06:17:46;10.87;;;9.80;;
1336;SDS011;662;48.814;9.318;2022-09-24T06:20:12;11.30;;;10.20;;
1336;SDS011;662;48.814;9.318;2022-09-24T06:22:38;9.50;;;8.70;;
1336;SDS011;662;48.814;9.318;2022-09-24T06:25:04;11.23;;;10.13;;
1336;SDS011;662;48.814;9.318;2022-09-24T06:27:31;12.40;;;10.10;;
1336;SDS011;662;48.814;9.318;2022-09-24T06:29:57;12.30;;;10.70;;
1336;SDS011;662;48.814;9.318;2022-09-24T06:32:23;10.47;;;9.47;;
1336;SDS011;662;48.814;9.318;2022-09-24T06:34:49;11.13;;;9.80;;
1336;SDS011;662;48.814;9.318;2022-09-24T06:37:15;11.30;;;10.20;;
1336;SDS011;662;48.814;9.318;2022-09-24T06:39:40;13.90;;;11.07;;
1336;SDS011;662;48.814;9.318;2022-09-24T06:42:06;11.80;;;10.70;;
1336;SDS011;662;48.814;9.318;2022-09-24T06:44:33;12.17;;;10.93;;
1336;SDS011;662;48.814;9.318;2022-09-24T06:46:59;11.20;;;10.20;;
1336;SDS011;662;48.814;9.318;2022-09-24T06:49:25;10.93;;;9.93;;
1336;SDS011;662;48.814;9.318;2022-09-24T06:51:54;11.43;;;10.33;;
1336;SDS011;662;48.814;9.318;2022-09-24T06:54:21;11.17;;;10.07;;
1336;SDS011;662;48.814;9.318;2022-09-24T06:56:47;12.50;;;10.27;;
1336;SDS011;662;48.814;9.318;2022-09-24T06:59:14;14.53;;;10.47;;
1336;SDS011;662;48.814;9.318;2022-09-24T07:01:39;11.60;;;10.13;;
1336;SDS011;662;48.814;9.318;2022-09-24T07:04:05;10.83;;;9.93;;
1336;SDS011;662;48.814;9.318;2022-09-24T07:06:32;13.13;;;11.27;;
1336;SDS011;662;48.814;9.318;2022-09-24T07:09:18;11.93;;;10.90;;
1336;SDS011;662;48.814;9.318;2022-09-24T07:11:44;16.23;;;10.83;;
1336;SDS011;662;48.814;9.318;2022-09-24T07:14:12;11.37;;;10.30;;
1336;SDS011;662;48.814;9.318;2022-09-24T07:16:38;14.27;;;10.73;;
1336;SDS011;662;48.814;9.318;2022-09-24T07:19:04;11.77;;;10.57;;
1336;SDS011;662;48.814;9.318;2022-09-24T07:21:29;12.83;;;11.33;;
1336;SDS011;662;48.814;9.318;2022-09-24T07:23:55;12.87;;;11.57;;
1336;SDS011;662;48.814;9.318;2022-09-24T07:26:21;11.97;;;10.87;;
1336;SDS011;662;48.814;9.318;2022-09-24T07:28:46;12.17;;;10.77;;
1336;SDS011;662;48.814;9.318;2022-09-24T07:31:12;12.40;;;11.07;;
1336;SDS011;662;48.814;9.318;2022-09-24T07:33:38;12.97;;;11.47;;
1336;SDS011;662;48.814;9.318;2022-09-24T07:36:04;11.73;;;10.73;;
1336;SDS011;662;48.814;9.318;2022-09-24T07:38:31;10.70;;;9.47;;
1336;SDS011;662;48.814;9.318;2022-09-24T07:40:59;11.13;;;10.23;;
1336;SDS011;662;48.814;9.318;2022-09-24T07:43:24;12.50;;;11.00;;
1336;SDS011;662;48.814;9.318;2022-09-24T07:45:52;12.80;;;10.57;;
1336;SDS011;662;48.814;9.318;2022-09-24T07:48:19;12.07;;;10.90;;
1336;SDS011;662;48.814;9.318;2022-09-24T07:50:45;13.60;;;11.10;;
1336;SDS011;662;48.814;9.318;2022-09-24T07:53:11;11.87;;;10.70;;
1336;SDS011;662;48.814;9.318;2022-09-24T07:55:37;13.10;;;11.87;;
1336;SDS011;662;48.814;9.318;2022-09-24T07:58:04;11.20;;;10.20;;
1336;SDS011;662;48.814;9.318;2022-09-24T08:00:30;12.50;;;11.17;;
1336;SDS011;662;48.814;9.318;2022-09-24T08:02:56;10.97;;;10.07;;
1336;SDS011;662;48.814;9.318;2022-09-24T08:05:22;14.80;;;11.97;;
1336;SDS011;662;48.814;9.318;2022-09-24T08:07:51;11.63;;;10.33;;
1336;SDS011;662;48.814;9.318;2022-09-24T08:10:18;13.13;;;9.87;;
1336;SDS011;662;48.814;9.318;2022-09-24T08:12:43;14.27;;;10.97;;
1336;SDS011;662;48.814;9.318;2022-09-24T08:15:09;11.83;;;10.73;;
1336;SDS011;662;48.814;9.318;2022-09-24T08:17:35;12.17;;;10.90;;
1336;SDS011;662;48.814;9.318;2022-09-24T08:20:00;11.63;;;10.53;;
1336;SDS011;662;48.814;9.318;2022-09-24T08:22:26;12.50;;;10.70;;
1336;SDS011;662;48.814;9.318;2022-09-24T08:24:52;12.60;;;10.90;;
1336;SDS011;662;48.814;9.318;2022-09-24T08:27:18;13.17;;;11.67;;
1336;SDS011;662;48.814;9.318;2022-09-24T08:29:44;17.70;;;10.60;;
1336;SDS011;662;48.814;9.318;2022-09-24T08:32:10;11.67;;;10.50;;
1336;SDS011;662;48.814;9.318;2022-09-24T08:34:37;11.60;;;10.40;;
1336;SDS011;662;48.814;9.318;2022-09-24T08:37:04;12.57;;;11.37;;
1336;SDS011;662;48.814;9.318;2022-09-24T08:39:31;11.83;;;10.60;;
1336;SDS011;662;48.814;9.318;2022-09-24T08:42:17;16.00;;;12.47;;
1336;SDS011;662;48.814;9.318;2022-09-24T08:44:49;12.10;;;10.90;;
1336;SDS011;662;48.814;9.318;2022-09-24T08:50:21;12.20;;;10.90;;
1336;SDS011;662;48.814;9.318;2022-09-24T09:00:55;11.30;;;9.93;;
1336;SDS011;662;48.814;9.318;2022-09-24T09:06:08;11.27;;;9.70;;
1336;SDS011;662;48.814;9.318;2022-09-24T09:08:58;10.30;;;9.40;;
1336;SDS011;662;48.814;9.318;2022-09-24T09:11:31;9.67;;;8.77;;
1336;SDS011;662;48.814;9.318;2022-09-24T09:14:06;13.30;;;9.27;;
1336;SDS011;662;48.814;9.318;2022-09-24T09:16:42;9.50;;;8.63;;
1336;SDS011;662;48.814;9.318;2022-09-24T09:19:23;10.23;;;9.07;;
1336;SDS011;662;48.814;9.318;2022-09-24T09:21:55;10.10;;;9.10;;
1336;SDS011;662;48.814;9.318;2022-09-24T09:24:38;9.47;;;8.30;;
1336;SDS011;662;48.814;9.318;2022-09-24T09:27:10;9.77;;;8.80;;
1336;SDS011;662;48.814;9.318;2022-09-24T09:29:50;8.00;;;7.30;;
1336;SDS011;662;48.814;9.318;2022-09-24T09:32:44;7.67;;;7.00;;
1336;SDS011;662;48.814;9.318;2022-09-24T09:35:50;8.87;;;7.07;;
1336;SDS011;662;48.814;9.318;2022-09-24T09:38:28;6.50;;;6.00;;
1336;SDS011;662;48.814;9.318;2022-09-24T09:41:14;6.53;;;5.93;;
1336;SDS011;662;48.814;9.318;2022-09-24T09:43:46;7.23;;;6.13;;
1336;SDS011;662;48.814;9.318;2022-09-24T09:46:31;5.70;;;5.30;;
1336;SDS011;662;48.814;9.318;2022-09-24T09:49:03;6.67;;;5.67;;
1336;SDS011;662;48.814;9.318;2022-09-24T09:51:32;5.30;;;4.90;;
1336;SDS011;662;48.814;9.318;2022-09-24T09:54:03;6.80;;;6.10;;
1336;SDS011;662;48.814;9.318;2022-09-24T09:56:36;5.77;;;5.23;;
1336;SDS011;662;48.814;9.318;2022-09-24T10:01:39;6.37;;;5.73;;
1336;SDS011;662;48.814;9.318;2022-09-24T10:07:01;5.60;;;5.10;;
1336;SDS011;662;48.814;9.318;2022-09-24T10:09:38;5.40;;;4.90;;
1336;SDS011;662;48.814;9.318;2022-09-24T10:12:16;5.80;;;4.87;;
1336;SDS011;662;48.814;9.318;2022-09-24T10:14:55;5.27;;;4.60;;
1336;SDS011;662;48.814;9.318;2022-09-24T10:17:30;7.13;;;4.70;;
1336;SDS011;662;48.814;9.318;2022-09-24T10:20:02;4.20;;;3.80;;
1336;SDS011;662;48.814;9.318;2022-09-24T10:22:44;3.97;;;3.57;;
1336;SDS011;662;48.814;9.318;2022-09-24T10:25:32;6.50;;;3.90;;
1336;SDS011;662;48.814;9.318;2022-09-24T10:28:02;5.77;;;3.37;;
1336;SDS011;662;48.814;9.318;2022-09-24T10:30:55;4.33;;;3.93;;
1336;SDS011;662;48.814;9.318;2022-09-24T10:33:37;5.97;;;3.90;;
1336;SDS011;662;48.814;9.318;2022-09-24T10:36:05;6.20;;;4.30;;
1336;SDS011;662;48.814;9.318;2022-09-24T10:38:36;5.60;;;5.10;;
1336;SDS011;662;48.814;9.318;2022-09-24T10:41:12;8.30;;;4.93;;
1336;SDS011;662;48.814;9.318;2022-09-24T10:43:50;3.70;;;3.40;;
1336;SDS011;662;48.814;9.318;2022-09-24T10:49:20;4.50;;;4.10;;
1336;SDS011;662;48.814;9.318;2022-09-24T11:00:31;4.10;;;3.70;;
1336;SDS011;662;48.814;9.318;2022-09-24T11:05:40;5.20;;;3.67;;
1336;SDS011;662;48.814;9.318;2022-09-24T11:11:19;4.60;;;3.63;;
1336;SDS011;662;48.814;9.318;2022-09-24T11:19:40;3.83;;;3.53;;
1336;SDS011;662;48.814;9.318;2022-09-24T11:36:24;4.87;;;4.23;;
1336;SDS011;662;48.814;9.318;2022-09-24T11:39:12;3.60;;;3.30;;
1336;SDS011;662;48.814;9.318;2022-09-24T11:42:12;3.43;;;3.10;;
1336;SDS011;662;48.814;9.318;2022-09-24T11:50:52;3.70;;;3.40;;
1336;SDS011;662;48.814;9.318;2022-09-24T11:56:04;3.53;;;3.23;;
1336;SDS011;662;48.814;9.318;2022-09-24T11:58:45;3.80;;;3.50;;
1336;SDS011;662;48.814;9.318;2022-09-24T12:03:51;4.07;;;3.73;;
1336;SDS011;662;48.814;9.318;2022-09-24T12:11:58;3.30;;;3.00;;
1336;SDS011;662;48.814;9.318;2022-09-24T12:14:40;7.97;;;2.77;;
1336;SDS011;662;48.814;9.318;2022-09-24T12:17:15;3.20;;;3.00;;
1336;SDS011;662;48.814;9.318;2022-09-24T12:19:57;3.93;;;3.63;;
1336;SDS011;662;48.814;9.318;2022-09-24T12:22:31;5.30;;;3.83;;
1336;SDS011;662;48.814;9.318;2022-09-24T12:25:01;5.60;;;3.40;;
1336;SDS011;662;48.814;9.318;2022-09-24T12:27:33;3.70;;;3.40;;
1336;SDS011;662;48.814;9.318;2022-09-24T12:38:44;4.17;;;3.83;;
1336;SDS011;662;48.814;9.318;2022-09-24T12:46:40;4.83;;;4.43;;
1336;SDS011;662;48.814;9.318;2022-09-24T12:52:05;4.83;;;4.40;;
1336;SDS011;662;48.814;9.318;2022-09-24T12:54:58;4.30;;;3.87;;
1336;SDS011;662;48.814;9.318;2022-09-24T12:57:28;4.83;;;4.47;;
1336;SDS011;662;48.814;9.318;2022-09-24T13:02:55;5.90;;;5.30;;
1336;SDS011;662;48.814;9.318;2022-09-24T13:08:00;5.47;;;4.87;;
1336;SDS011;662;48.814;9.318;2022-09-24T13:10:30;5.10;;;4.60;;
1336;SDS011;662;48.814;9.318;2022-09-24T13:12:58;5.27;;;4.50;;
1336;SDS011;662;48.814;9.318;2022-09-24T13:15:26;5.20;;;4.63;;
1336;SDS011;662;48.814;9.318;2022-09-24T13:18:00;5.30;;;4.37;;
1336;SDS011;662;48.814;9.318;2022-09-24T13:20:38;5.90;;;4.90;;
1336;SDS011;662;48.814;9.318;2022-09-24T13:36:59;6.70;;;5.93;;
1336;SDS011;662;48.814;9.318;2022-09-24T13:39:35;7.00;;;5.93;;
1336;SDS011;662;48.814;9.318;2022-09-24T13:44:53;5.37;;;4.97;;
1336;SDS011;662;48.814;9.318;2022-09-24T13:52:58;5.80;;;5.27;;
1336;SDS011;662;48.814;9.318;2022-09-24T14:01:00;5.80;;;5.30;;
1336;SDS011;662;48.814;9.318;2022-09-24T14:03:29;6.87;;;6.30;;
1336;SDS011;662;48.814;9.318;2022-09-24T14:05:57;5.77;;;5.17;;
1336;SDS011;662;48.814;9.318;2022-09-24T14:08:24;5.90;;;4.80;;
1336;SDS011;662;48.814;9.318;2022-09-24T14:10:51;6.50;;;5.27;;
1336;SDS011;662;48.814;9.318;2022-09-24T14:13:36;5.40;;;4.90;;
1336;SDS011;662;48.814;9.318;2022-09-24T14:16:07;4.70;;;4.40;;
1336;SDS011;662;48.814;9.318;2022-09-24T14:18:34;6.10;;;5.60;;
1336;SDS011;662;48.814;9.318;2022-09-24T14:21:08;6.23;;;5.63;;
1336;SDS011;662;48.814;9.318;2022-09-24T14:23:45;6.83;;;5.47;;
1336;SDS011;662;48.814;9.318;2022-09-24T14:28:53;5.20;;;4.80;;
1336;SDS011;662;48.814;9.318;2022-09-24T14:31:21;6.40;;;5.80;;
1336;SDS011;662;48.814;9.318;2022-09-24T14:33:47;5.53;;;5.10;;
1336;SDS011;662;48.814;9.318;2022-09-24T14:36:13;5.80;;;5.20;;
1336;SDS011;662;48.814;9.318;2022-09-24T14:41:23;6.23;;;4.97;;
1336;SDS011;662;48.814;9.318;2022-09-24T14:46:29;4.93;;;4.53;;
1336;SDS011;662;48.814;9.318;2022-09-24T14:49:18;5.07;;;4.63;;
1336;SDS011;662;48.814;9.318;2022-09-24T14:51:50;5.50;;;5.00;;
1336;SDS011;662;48.814;9.318;2022-09-24T14:56:55;5.40;;;4.90;;
1336;SDS011;662;48.814;9.318;2022-09-24T14:59:35;5.50;;;5.07;;
1336;SDS011;662;48.814;9.318;2022-09-24T15:04:59;4.60;;;4.20;;
1336;SDS011;662;48.814;9.318;2022-09-24T15:07:29;5.13;;;4.67;;
1336;SDS011;662;48.814;9.318;2022-09-24T15:09:57;7.10;;;4.80;;
1336;SDS011;662;48.814;9.318;2022-09-24T15:14:59;5.93;;;4.53;;
1336;SDS011;662;48.814;9.318;2022-09-24T15:17:31;5.73;;;4.80;;
1336;SDS011;662;48.814;9.318;2022-09-24T15:19:58;5.30;;;4.80;;
1336;SDS011;662;48.814;9.318;2022-09-24T15:22:24;5.43;;;5.00;;
1336;SDS011;662;48.814;9.318;2022-09-24T15:24:52;6.97;;;6.27;;
1336;SDS011;662;48.814;9.318;2022-09-24T15:29:53;5.70;;;5.20;;
1336;SDS011;662;48.814;9.318;2022-09-24T15:32:21;5.40;;;4.90;;
1336;SDS011;662;48.814;9.318;2022-09-24T15:34:46;6.03;;;5.43;;
1336;SDS011;662;48.814;9.318;2022-09-24T15:37:18;5.40;;;5.00;;
1336;SDS011;662;48.814;9.318;2022-09-24T15:39:49;6.53;;;5.93;;
1336;SDS011;662;48.814;9.318;2022-09-24T15:42:22;6.80;;;6.10;;
1336;SDS011;662;48.814;9.318;2022-09-24T15:44:49;6.60;;;6.00;;
1336;SDS011;662;48.814;9.318;2022-09-24T15:47:15;5.93;;;5.43;;
1336;SDS011;662;48.814;9.318;2022-09-24T15:49:42;5.70;;;5.20;;
1336;SDS011;662;48.814;9.318;2022-09-24T15:52:30;5.60;;;5.20;;
1336;SDS011;662;48.814;9.318;2022-09-24T15:54:56;6.20;;;5.60;;
1336;SDS011;662;48.814;9.318;2022-09-24T15:57:24;5.87;;;5.37;;
1336;SDS011;662;48.814;9.318;2022-09-24T15:59:50;6.10;;;5.60;;
1336;SDS011;662;48.814;9.318;2022-09-24T16:02:20;5.43;;;5.03;;
1336;SDS011;662;48.814;9.318;2022-09-24T16:04:51;5.57;;;5.07;;
1336;SDS011;662;48.814;9.318;2022-09-24T16:07:17;5.30;;;4.90;;
1336;SDS011;662;48.814;9.318;2022-09-24T16:09:43;6.13;;;5.53;;
1336;SDS011;662;48.814;9.318;2022-09-24T16:12:12;6.97;;;6.27;;
1336;SDS011;662;48.814;9.318;2022-09-24T16:14:40;7.17;;;6.50;;
1336;SDS011;662;48.814;9.318;2022-09-24T16:17:05;6.43;;;5.93;;
1336;SDS011;662;48.814;9.318;2022-09-24T16:19:31;6.33;;;5.83;;
1336;SDS011;662;48.814;9.318;2022-09-24T16:21:56;7.20;;;6.60;;
1336;SDS011;662;48.814;9.318;2022-09-24T16:24:23;7.43;;;6.73;;
1336;SDS011;662;48.814;9.318;2022-09-24T16:26:51;9.20;;;7.63;;
1336;SDS011;662;48.814;9.318;2022-09-24T16:29:16;7.33;;;6.63;;
1336;SDS011;662;48.814;9.318;2022-09-24T16:31:42;8.07;;;6.70;;
1336;SDS011;662;48.814;9.318;2022-09-24T16:34:12;7.13;;;6.43;;
1336;SDS011;662;48.814;9.318;2022-09-24T16:36:37;7.17;;;6.50;;
1336;SDS011;662;48.814;9.318;2022-09-24T16:39:03;7.23;;;6.63;;
1336;SDS011;662;48.814;9.318;2022-09-24T16:41:29;7.30;;;6.70;;
1336;SDS011;662;48.814;9.318;2022-09-24T16:43:58;8.20;;;7.07;;
1336;SDS011;662;48.814;9.318;2022-09-24T16:46:25;8.20;;;7.50;;
1336;SDS011;662;48.814;9.318;2022-09-24T16:48:51;6.80;;;6.20;;
1336;SDS011;662;48.814;9.318;2022-09-24T16:51:17;9.20;;;7.77;;
1336;SDS011;662;48.814;9.318;2022-09-24T16:53:43;7.93;;;7.13;;
1336;SDS011;662;48.814;9.318;2022-09-24T16:56:14;8.30;;;7.60;;
1336;SDS011;662;48.814;9.318;2022-09-24T16:58:41;7.63;;;6.40;;
1336;SDS011;662;48.814;9.318;2022-09-24T17:01:09;7.33;;;6.67;;
1336;SDS011;662;48.814;9.318;2022-09-24T17:03:40;10.20;;;7.07;;
1336;SDS011;662;48.814;9.318;2022-09-24T17:06:06;8.53;;;7.73;;
1336;SDS011;662;48.814;9.318;2022-09-24T17:08:33;8.00;;;7.30;;
1336;SDS011;662;48.814;9.318;2022-09-24T17:11:18;8.53;;;7.70;;
1336;SDS011;662;48.814;9.318;2022-09-24T17:13:45;8.47;;;7.70;;
1336;SDS011;662;48.814;9.318;2022-09-24T17:16:12;8.67;;;7.87;;
1336;SDS011;662;48.814;9.318;2022-09-24T17:18:38;8.30;;;7.50;;
1336;SDS011;662;48.814;9.318;2022-09-24T17:21:08;8.73;;;7.40;;
1336;SDS011;662;48.814;9.318;2022-09-24T17:23:35;8.07;;;7.27;;
1336;SDS011;662;48.814;9.318;2022-09-24T17:28:39;13.97;;;11.13;;
1336;SDS011;662;48.814;9.318;2022-09-24T17:31:06;11.90;;;10.70;;
1336;SDS011;662;48.814;9.318;2022-09-24T17:33:33;9.50;;;8.70;;
1336;SDS011;662;48.814;9.318;2022-09-24T17:36:01;8.77;;;8.07;;
1336;SDS011;662;48.814;9.318;2022-09-24T17:38:29;10.50;;;9.47;;
1336;SDS011;662;48.814;9.318;2022-09-24T17:40:55;10.00;;;9.10;;
1336;SDS011;662;48.814;9.318;2022-09-24T17:43:23;10.50;;;9.57;;
1336;SDS011;662;48.814;9.318;2022-09-24T17:45:59;11.10;;;10.10;;
1336;SDS011;662;48.814;9.318;2022-09-24T17:48:33;9.90;;;9.00;;
1336;SDS011;662;48.814;9.318;2022-09-24T17:51:02;9.67;;;8.87;;
1336;SDS011;662;48.814;9.318;2022-09-24T17:53:30;9.03;;;8.20;;
1336;SDS011;662;48.814;9.318;2022-09-24T17:55:57;9.20;;;8.50;;
1336;SDS011;662;48.814;9.318;2022-09-24T17:58:23;9.93;;;9.03;;
1336;SDS011;662;48.814;9.318;2022-09-24T18:00:49;10.80;;;9.70;;
1336;SDS011;662;48.814;9.318;2022-09-24T18:03:16;10.43;;;9.43;;
1336;SDS011;662;48.814;9.318;2022-09-24T18:05:43;10.00;;;9.10;;
1336;SDS011;662;48.814;9.318;2022-09-24T18:08:09;9.40;;;8.63;;
1336;SDS011;662;48.814;9.318;2022-09-24T18:10:34;10.70;;;9.77;;
1336;SDS011;662;48.814;9.318;2022-09-24T18:13:00;11.83;;;10.83;;
1336;SDS011;662;48.814;9.318;2022-09-24T18:15:26;14.57;;;11.10;;
1336;SDS011;662;48.814;9.318;2022-09-24T18:17:54;16.20;;;14.57;;
1336;SDS011;662;48.814;9.318;2022-09-24T18:20:23;14.47;;;12.97;;